createdAt,value
2022-09-23T00:02:07.518Z,100.00
2022-09-23T00:07:10.558Z,100.00
2022-09-23T00:12:13.355Z,100.00
2022-09-23T00:17:16.261Z,100.00
2022-09-23T00:22:19.162Z,100.00
2022-09-23T00:27:22.066Z,100.00
2022-09-23T00:32:25.116Z,100.00
2022-09-23T00:37:28.948Z,100.00
2022-09-23T00:42:32.008Z,100.00
2022-09-23T00:47:54.982Z,100.00
2022-09-23T00:53:01.336Z,100.00
2022-09-23T00:58:08.106Z,100.00
2022-09-23T01:03:12.128Z,100.00
2022-09-23T01:08:15.960Z,100.00
2022-09-23T01:13:27.013Z,100.00
2022-09-23T01:18:57.430Z,100.00
2022-09-23T01:24:18.593Z,100.00
2022-09-23T01:30:03.445Z,100.00
2022-09-23T01:35:15.403Z,100.00
2022-09-23T01:40:42.868Z,100.00
2022-09-23T01:45:48.877Z,100.00
2022-09-23T01:50:57.758Z,100.00
2022-09-23T01:56:05.515Z,100.00
2022-09-23T02:01:10.215Z,100.00
2022-09-23T02:06:23.099Z,100.00
2022-09-23T02:11:26.991Z,100.00
2022-09-23T02:16:51.966Z,100.00
2022-09-23T02:22:09.245Z,100.00
2022-09-23T02:27:31.552Z,100.00
2022-09-23T02:33:07.221Z,100.00
2022-09-23T02:38:31.735Z,100.00
2022-09-23T02:43:45.389Z,100.00
2022-09-23T02:48:56.995Z,100.00
2022-09-23T02:54:00.187Z,100.00
2022-09-23T02:59:04.301Z,100.00
2022-09-23T03:04:21.688Z,100.00
2022-09-23T03:09:33.802Z,100.00
2022-09-23T03:14:51.040Z,100.00
2022-09-23T03:19:53.843Z,100.00
2022-09-23T03:25:03.813Z,100.00
2022-09-23T03:30:08.464Z,100.00
2022-09-23T03:40:41.999Z,100.00
2022-09-23T03:45:46.849Z,100.00
2022-09-23T03:50:49.873Z,100.00
2022-09-23T03:55:52.676Z,100.00
2022-09-23T04:00:55.704Z,100.00
2022-09-23T04:05:58.595Z,100.00
2022-09-23T04:11:02.458Z,100.00
2022-09-23T04:16:05.989Z,100.00
2022-09-23T04:21:09.141Z,100.00
2022-09-23T04:26:12.862Z,100.00
2022-09-23T04:31:16.140Z,100.00
2022-09-23T04:36:19.590Z,100.00
2022-09-23T04:41:22.495Z,100.00
2022-09-23T04:46:25.568Z,100.00
2022-09-23T04:51:29.026Z,100.00
2022-09-23T04:56:32.948Z,100.00
2022-09-23T05:01:36.672Z,100.00
2022-09-23T05:06:40.188Z,100.00
2022-09-23T05:11:44.029Z,100.00
2022-09-23T05:16:46.917Z,100.00
2022-09-23T05:21:49.822Z,100.00
2022-09-23T05:26:54.394Z,100.00
2022-09-23T05:31:57.336Z,100.00
2022-09-23T05:37:03.704Z,100.00
2022-09-23T05:42:07.116Z,100.00
2022-09-23T05:47:10.029Z,100.00
2022-09-23T05:52:13.002Z,100.00
2022-09-23T05:57:16.311Z,100.00
2022-09-23T06:02:19.239Z,100.00
2022-09-23T06:07:22.311Z,100.00
2022-09-23T06:12:25.311Z,100.00
2022-09-23T06:17:28.119Z,100.00
2022-09-23T06:22:31.105Z,100.00
2022-09-23T06:27:34.023Z,100.00
2022-09-23T06:32:37.031Z,99.63
2022-09-23T06:37:43.210Z,93.74
2022-09-23T06:42:49.033Z,91.79
2022-09-23T06:48:06.331Z,90.26
2022-09-23T06:53:09.347Z,91.41
2022-09-23T06:58:12.444Z,91.02
2022-09-23T07:03:15.341Z,85.51
2022-09-23T07:08:18.760Z,81.63
2022-09-23T07:13:21.831Z,76.89
2022-09-23T07:18:26.205Z,72.10
2022-09-23T07:23:29.210Z,69.30
2022-09-23T07:28:32.629Z,68.96
2022-09-23T07:33:42.931Z,67.55
2022-09-23T07:38:47.456Z,65.45
2022-09-23T07:43:55.677Z,58.76
2022-09-23T07:48:59.389Z,60.38
2022-09-23T07:54:02.410Z,63.65
2022-09-23T07:59:09.005Z,63.72
2022-09-23T08:04:14.049Z,67.42
2022-09-23T08:09:22.148Z,66.73
2022-09-23T08:14:25.391Z,64.32
2022-09-23T08:19:28.291Z,63.19
2022-09-23T08:24:32.421Z,62.40
2022-09-23T08:29:35.222Z,64.04
2022-09-23T08:34:38.024Z,67.14
2022-09-23T08:39:40.826Z,69.00
2022-09-23T08:44:49.575Z,72.56
2022-09-23T08:50:08.406Z,74.98
2022-09-23T08:55:15.955Z,75.81
2022-09-23T09:00:23.639Z,76.87
2022-09-23T09:05:28.625Z,77.89
2022-09-23T09:10:41.878Z,79.33
2022-09-23T09:15:56.384Z,80.76
2022-09-23T09:21:16.096Z,79.74
2022-09-23T09:26:28.458Z,80.53
2022-09-23T09:31:38.033Z,81.34
2022-09-23T09:37:06.731Z,80.76
2022-09-23T09:42:21.028Z,78.69
2022-09-23T09:47:46.718Z,77.19
2022-09-23T09:52:49.704Z,77.88
2022-09-23T09:58:02.013Z,77.54
2022-09-23T10:03:18.349Z,78.51
2022-09-23T10:08:37.321Z,76.81
2022-09-23T10:13:40.236Z,77.31
2022-09-23T10:18:46.199Z,76.44
2022-09-23T10:23:52.746Z,73.64
2022-09-23T10:28:55.818Z,73.23
2022-09-23T10:34:28.086Z,71.13
2022-09-23T10:39:49.942Z,66.55
2022-09-23T10:45:26.232Z,67.08
2022-09-23T10:50:46.238Z,68.50
2022-09-23T10:56:06.562Z,69.83
2022-09-23T11:01:13.619Z,69.84
2022-09-23T11:06:35.612Z,71.19
2022-09-23T11:11:47.326Z,70.82
2022-09-23T11:17:02.242Z,69.19
2022-09-23T11:22:16.076Z,70.14
2022-09-23T11:27:27.786Z,70.01
2022-09-23T11:32:44.824Z,67.71
2022-09-23T11:37:52.847Z,65.85
2022-09-23T11:43:26.063Z,65.72
2022-09-23T11:48:42.281Z,65.58
2022-09-23T11:53:57.886Z,67.48
2022-09-23T11:59:06.660Z,68.39
2022-09-23T12:04:23.446Z,70.14
2022-09-23T12:15:19.647Z,72.44
2022-09-23T12:20:42.527Z,73.12
2022-09-23T12:25:57.306Z,73.66
2022-09-23T12:31:04.025Z,73.74
2022-09-23T12:36:12.352Z,74.88
2022-09-23T12:41:27.837Z,75.67
2022-09-23T12:46:30.741Z,75.91
2022-09-23T12:51:37.423Z,75.09
2022-09-23T12:56:40.228Z,74.37
2022-09-23T13:01:44.567Z,73.73
2022-09-23T13:07:09.563Z,73.20
2022-09-23T13:12:40.451Z,72.71
2022-09-23T13:17:43.350Z,71.50
2022-09-23T13:22:49.027Z,71.81
2022-09-23T13:27:55.508Z,72.25
2022-09-23T13:33:24.632Z,73.17
2022-09-23T13:38:32.253Z,72.16
2022-09-23T13:43:41.342Z,71.63
2022-09-23T13:48:46.863Z,70.68
2022-09-23T13:53:55.367Z,70.10
2022-09-23T13:59:26.372Z,69.06
2022-09-23T14:04:29.268Z,67.68
2022-09-23T14:09:35.447Z,68.19
2022-09-23T14:14:41.083Z,68.28
2022-09-23T14:19:44.512Z,68.16
2022-09-23T14:24:49.548Z,67.32
2022-09-23T14:29:54.040Z,67.77
2022-09-23T14:34:59.602Z,67.60
2022-09-23T14:40:04.149Z,67.07
2022-09-23T14:45:10.116Z,66.97
2022-09-23T14:50:36.997Z,68.12
2022-09-23T14:55:41.735Z,69.60
2022-09-23T15:00:55.918Z,71.54
2022-09-23T15:06:08.750Z,72.50
2022-09-23T15:11:12.359Z,72.73
2022-09-23T15:16:26.663Z,73.50
2022-09-23T15:21:42.350Z,74.52
2022-09-23T15:26:48.912Z,75.05
2022-09-23T15:31:52.075Z,75.69
2022-09-23T15:36:55.148Z,75.77
2022-09-23T15:41:58.870Z,75.93
2022-09-23T15:47:02.391Z,76.02
2022-09-23T15:52:07.981Z,76.40
2022-09-23T15:57:11.376Z,76.73
2022-09-23T16:02:22.667Z,77.34
2022-09-23T16:07:28.453Z,77.68
2022-09-23T16:12:31.449Z,77.97
2022-09-23T16:17:37.780Z,78.46
2022-09-23T16:22:40.740Z,78.94
2022-09-23T16:27:43.645Z,80.47
2022-09-23T16:32:46.548Z,81.50
2022-09-23T16:37:51.186Z,82.57
2022-09-23T16:42:56.040Z,82.86
2022-09-23T16:47:59.663Z,83.57
2022-09-23T16:53:02.570Z,84.58
2022-09-23T16:58:05.471Z,85.86
2022-09-23T17:03:29.881Z,86.54
2022-09-23T17:08:33.383Z,87.35
2022-09-23T17:13:41.226Z,88.01
2022-09-23T17:18:44.222Z,88.82
2022-09-23T17:23:47.143Z,89.36
2022-09-23T17:28:51.876Z,89.64
2022-09-23T17:33:55.294Z,90.67
2022-09-23T17:38:58.197Z,91.86
2022-09-23T17:44:01.328Z,92.43
2022-09-23T17:49:05.727Z,93.58
2022-09-23T17:54:09.165Z,93.64
2022-09-23T17:59:14.523Z,93.79
2022-09-23T18:04:17.637Z,93.77
2022-09-23T18:09:20.740Z,94.43
2022-09-23T18:14:24.276Z,95.13
2022-09-23T18:19:27.468Z,95.80
2022-09-23T18:24:33.611Z,96.18
2022-09-23T18:29:38.218Z,96.38
2022-09-23T18:34:41.305Z,96.35
2022-09-23T18:39:44.666Z,96.63
2022-09-23T18:44:50.089Z,97.07
2022-09-23T18:50:12.444Z,97.13
2022-09-23T18:55:15.658Z,97.66
2022-09-23T19:00:19.602Z,98.22
2022-09-23T19:05:22.587Z,98.57
2022-09-23T19:10:25.701Z,99.01
2022-09-23T19:15:28.813Z,98.85
2022-09-23T19:20:31.811Z,99.31
2022-09-23T19:25:36.357Z,99.02
2022-09-23T19:30:39.570Z,99.37
2022-09-23T19:35:48.731Z,99.26
2022-09-23T19:40:52.270Z,99.99
2022-09-23T19:45:55.857Z,100.00
2022-09-23T19:50:58.864Z,100.00
2022-09-23T19:56:05.058Z,100.00
2022-09-23T20:01:08.352Z,100.00
2022-09-23T20:06:11.773Z,100.00
2022-09-23T20:11:23.647Z,100.00
2022-09-23T20:16:33.717Z,100.00
2022-09-23T20:21:36.764Z,100.00
2022-09-23T20:26:58.510Z,100.00
2022-09-23T20:32:01.779Z,100.00
2022-09-23T20:37:06.230Z,100.00
2022-09-23T20:42:10.344Z,100.00
2022-09-23T20:47:14.959Z,100.00
2022-09-23T20:52:20.513Z,100.00
2022-09-23T20:57:23.408Z,100.00
2022-09-23T21:02:27.467Z,100.00
2022-09-23T21:07:32.291Z,100.00
2022-09-23T21:12:35.499Z,100.00
2022-09-23T21:17:38.426Z,100.00
2022-09-23T21:22:41.420Z,100.00
2022-09-23T21:27:45.235Z,100.00
2022-09-23T21:32:48.038Z,100.00
2022-09-23T21:37:50.838Z,100.00
2022-09-23T21:42:53.638Z,100.00
2022-09-23T21:47:56.542Z,100.00
2022-09-23T21:53:00.987Z,100.00
2022-09-23T21:58:04.707Z,100.00
2022-09-23T22:03:07.715Z,100.00
2022-09-23T22:08:10.823Z,100.00
2022-09-23T22:13:13.623Z,100.00
2022-09-23T22:18:19.495Z,100.00
2022-09-23T22:23:22.399Z,100.00
2022-09-23T22:28:43.735Z,100.00
2022-09-23T22:33:50.558Z,100.00
2022-09-23T22:38:59.184Z,100.00
2022-09-23T22:44:03.816Z,100.00
2022-09-23T22:49:09.389Z,100.00
2022-09-23T22:54:12.502Z,100.00
2022-09-23T22:59:15.404Z,100.00
2022-09-23T23:04:18.264Z,100.00
2022-09-23T23:09:21.098Z,100.00
2022-09-23T23:14:24.575Z,100.00
2022-09-23T23:19:27.521Z,100.00
2022-09-23T23:24:30.322Z,100.00
2022-09-23T23:29:33.226Z,100.00
2022-09-23T23:34:36.014Z,100.00
2022-09-23T23:39:38.809Z,100.00
2022-09-23T23:44:41.732Z,100.00
2022-09-23T23:49:44.582Z,100.00
2022-09-23T23:54:47.544Z,100.00
2022-09-23T23:59:50.446Z,100.00
